Terminal Aerodrome Forecast
Issued by NWS Portland, ME

Home | Current Version | Previous Version | Text Only | Print | Product List | Glossary On
Versions: 1 2 3 4 5 6 7 8 9 10 11 12 13 14 15 16 17 18 19 20 21 22 23
000
FTUS41 KGYX 251120
TAFCON
TAF
KCON 251120Z 2512/2612 00000KT 3SM BR SKC
     FM251300 16004KT P6SM FEW250
     FM260200 00000KT 5SM BR SKC
     FM260800 36002KT 1/4SM FG BKN001=

USA.gov is the U.S. government's official web portal to all federal, state and local government web resources and services.